createdAt,value
2023-04-21T00:01:34.290Z,7.05
2023-04-21T00:04:03.853Z,7.02
2023-04-21T00:06:34.149Z,7.06
2023-04-21T00:09:01.996Z,7.06
2023-04-21T00:11:29.343Z,7.07
2023-04-21T00:14:01.766Z,7.13
2023-04-21T00:16:28.974Z,7.13
2023-04-21T00:18:55.931Z,7.12
2023-04-21T00:21:25.739Z,7.10
2023-04-21T00:23:52.763Z,7.07
2023-04-21T00:26:23.347Z,7.03
2023-04-21T00:28:51.285Z,6.98
2023-04-21T00:31:18.379Z,6.98
2023-04-21T00:33:45.424Z,7.03
2023-04-21T00:36:12.504Z,7.05
2023-04-21T00:38:39.525Z,7.01
2023-04-21T00:41:08.855Z,7.03
2023-04-21T00:43:40.261Z,7.06
2023-04-21T00:46:09.150Z,7.06
2023-04-21T00:48:36.284Z,7.05
2023-04-21T00:51:03.396Z,6.95
2023-04-21T00:53:32.551Z,6.93
2023-04-21T00:55:59.514Z,6.87
2023-04-21T00:58:27.114Z,6.83
2023-04-21T01:00:58.202Z,6.81
2023-04-21T01:03:28.763Z,6.81
2023-04-21T01:05:56.658Z,6.79
2023-04-21T01:08:23.796Z,6.75
2023-04-21T01:10:50.907Z,6.77
2023-04-21T01:13:20.761Z,6.84
2023-04-21T01:15:51.005Z,6.87
2023-04-21T01:18:19.482Z,6.86
2023-04-21T01:20:50.089Z,6.80
2023-04-21T01:23:18.921Z,6.71
2023-04-21T01:25:47.155Z,6.66
2023-04-21T01:28:14.113Z,6.63
2023-04-21T01:30:41.037Z,6.54
2023-04-21T01:33:08.370Z,6.47
2023-04-21T01:35:38.112Z,6.37
2023-04-21T01:38:05.403Z,6.31
2023-04-21T01:40:32.673Z,6.25
2023-04-21T01:43:01.799Z,6.20
2023-04-21T01:45:28.742Z,6.13
2023-04-21T01:47:59.532Z,6.08
2023-04-21T01:50:29.473Z,6.13
2023-04-21T01:52:56.575Z,6.11
2023-04-21T01:55:24.543Z,6.00
2023-04-21T01:57:54.636Z,5.93
2023-04-21T02:00:21.684Z,5.95
2023-04-21T02:02:54.288Z,5.92
2023-04-21T02:05:21.318Z,5.90
2023-04-21T02:07:51.252Z,5.97
2023-04-21T02:10:18.226Z,6.00
2023-04-21T02:12:45.693Z,6.02
2023-04-21T02:15:13.336Z,6.04
2023-04-21T02:18:00.571Z,6.02
2023-04-21T02:20:30.733Z,6.06
2023-04-21T02:22:58.313Z,6.08
2023-04-21T02:25:28.345Z,6.05
2023-04-21T02:27:55.690Z,6.05
2023-04-21T02:30:22.707Z,6.05
2023-04-21T02:32:51.817Z,6.02
2023-04-21T02:35:21.839Z,6.06
2023-04-21T02:37:53.270Z,6.11
2023-04-21T02:40:22.809Z,6.09
2023-04-21T02:42:51.988Z,6.08
2023-04-21T02:45:19.068Z,6.05
2023-04-21T02:47:46.087Z,6.10
2023-04-21T02:50:14.782Z,6.05
2023-04-21T02:52:42.496Z,6.08
2023-04-21T02:55:12.824Z,6.17
2023-04-21T02:57:42.806Z,6.16
2023-04-21T03:00:12.638Z,6.23
2023-04-21T03:02:40.283Z,6.34
2023-04-21T03:05:07.807Z,6.39
2023-04-21T03:07:34.816Z,6.47
2023-04-21T03:10:07.354Z,6.49
2023-04-21T03:12:35.934Z,6.47
2023-04-21T03:15:04.816Z,6.40
2023-04-21T03:17:34.258Z,6.46
2023-04-21T03:20:01.684Z,6.48
2023-04-21T03:22:30.663Z,6.60
2023-04-21T03:24:58.431Z,6.69
2023-04-21T03:27:29.234Z,6.76
2023-04-21T03:29:57.246Z,6.80
2023-04-21T03:32:24.861Z,6.88
2023-04-21T03:34:53.252Z,6.96
2023-04-21T03:37:20.645Z,7.06
2023-04-21T03:39:49.441Z,7.19
2023-04-21T03:42:18.114Z,7.37
2023-04-21T03:45:06.988Z,7.38
2023-04-21T03:47:35.338Z,7.50
2023-04-21T03:50:08.881Z,7.61
2023-04-21T03:52:39.013Z,7.67
2023-04-21T03:55:14.353Z,7.80
2023-04-21T03:57:44.638Z,7.82
2023-04-21T04:00:19.042Z,7.87
2023-04-21T04:02:46.508Z,7.94
2023-04-21T04:05:14.116Z,8.08
2023-04-21T04:07:41.492Z,8.19
2023-04-21T04:10:12.046Z,8.17
2023-04-21T04:12:40.118Z,8.24
2023-04-21T04:15:08.128Z,8.40
2023-04-21T04:17:38.227Z,8.43
2023-04-21T04:20:09.692Z,8.57
2023-04-21T04:22:37.292Z,8.59
2023-04-21T04:25:05.465Z,8.65
2023-04-21T04:27:32.685Z,8.77
2023-04-21T04:29:59.999Z,8.83
2023-04-21T04:32:29.340Z,8.96
2023-04-21T04:34:56.460Z,9.04
2023-04-21T04:37:25.490Z,9.11
2023-04-21T04:39:58.666Z,9.20
2023-04-21T04:42:29.168Z,9.23
2023-04-21T04:45:02.026Z,9.31
2023-04-21T04:47:31.920Z,9.42
2023-04-21T04:50:00.171Z,9.52
2023-04-21T04:52:27.532Z,9.60
2023-04-21T04:54:57.518Z,9.65
2023-04-21T04:57:24.453Z,9.74
2023-04-21T04:59:58.115Z,9.80
2023-04-21T05:02:26.023Z,9.89
2023-04-21T05:04:53.425Z,9.97
2023-04-21T05:07:23.812Z,10.05
2023-04-21T05:09:50.910Z,10.13
2023-04-21T05:12:17.996Z,10.32
2023-04-21T05:14:45.088Z,10.46
2023-04-21T05:17:33.643Z,10.54
2023-04-21T05:20:19.528Z,10.63
2023-04-21T05:22:46.629Z,10.71
2023-04-21T05:25:15.970Z,10.73
2023-04-21T05:27:43.538Z,10.88
2023-04-21T05:30:11.118Z,10.90
2023-04-21T05:32:38.269Z,10.89
2023-04-21T05:35:05.980Z,10.95
2023-04-21T05:37:52.745Z,11.10
2023-04-21T05:40:19.933Z,11.24
2023-04-21T05:42:47.344Z,11.34
2023-04-21T05:45:14.586Z,11.42
2023-04-21T05:47:41.552Z,11.46
2023-04-21T05:50:10.989Z,11.48
2023-04-21T05:52:38.507Z,11.55
2023-04-21T05:55:12.607Z,11.73
2023-04-21T05:57:39.653Z,11.92
2023-04-21T06:00:07.829Z,11.99
2023-04-21T06:02:35.183Z,11.94
2023-04-21T06:05:03.088Z,11.90
2023-04-21T06:07:31.942Z,11.77
2023-04-21T06:09:59.157Z,11.98
2023-04-21T06:12:44.963Z,12.03
2023-04-21T06:15:12.078Z,12.23
2023-04-21T06:17:39.889Z,12.33
2023-04-21T06:20:09.500Z,12.37
2023-04-21T06:22:36.743Z,12.54
2023-04-21T06:25:06.572Z,12.74
2023-04-21T06:27:33.845Z,12.95
2023-04-21T06:30:00.918Z,12.87
2023-04-21T06:32:28.202Z,12.80
2023-04-21T06:34:58.254Z,12.93
2023-04-21T06:37:25.782Z,13.02
2023-04-21T06:39:54.200Z,13.15
2023-04-21T06:42:21.675Z,13.22
2023-04-21T06:44:50.530Z,13.22
2023-04-21T06:47:20.605Z,13.21
2023-04-21T06:49:47.893Z,13.37
2023-04-21T06:52:33.778Z,13.34
2023-04-21T06:55:08.171Z,13.31
2023-04-21T06:57:35.399Z,13.35
2023-04-21T07:00:06.091Z,13.51
2023-04-21T07:02:36.732Z,13.75
2023-04-21T07:05:04.335Z,13.82
2023-04-21T07:07:35.456Z,13.83
2023-04-21T07:10:22.263Z,13.78
2023-04-21T07:12:49.589Z,13.70
2023-04-21T07:15:17.346Z,13.88
2023-04-21T07:17:44.348Z,13.96
2023-04-21T07:20:11.873Z,13.91
2023-04-21T07:22:39.256Z,13.90
2023-04-21T07:25:06.985Z,13.88
2023-04-21T07:27:36.196Z,13.98
2023-04-21T07:30:07.723Z,14.12
2023-04-21T07:32:35.319Z,14.39
2023-04-21T07:35:03.530Z,14.60
2023-04-21T07:37:31.190Z,14.61
2023-04-21T07:39:58.812Z,14.70
2023-04-21T07:42:27.068Z,14.74
2023-04-21T07:45:12.687Z,14.74
2023-04-21T07:47:43.162Z,14.70
2023-04-21T07:50:10.674Z,14.81
2023-04-21T07:52:38.239Z,14.92
2023-04-21T07:55:05.839Z,15.08
2023-04-21T07:57:34.735Z,15.18
2023-04-21T08:00:06.222Z,15.38
2023-04-21T08:02:53.839Z,15.67
2023-04-21T08:05:31.821Z,15.78
2023-04-21T08:08:01.390Z,16.03
2023-04-21T08:10:28.512Z,16.24
2023-04-21T08:12:56.432Z,16.46
2023-04-21T08:15:23.767Z,16.61
2023-04-21T08:17:50.994Z,16.84
2023-04-21T08:20:18.368Z,17.10
2023-04-21T08:22:47.413Z,17.01
2023-04-21T08:25:15.532Z,17.04
2023-04-21T08:27:43.960Z,16.96
2023-04-21T08:30:11.740Z,17.14
2023-04-21T08:32:39.025Z,17.53
2023-04-21T08:35:06.458Z,17.96
2023-04-21T08:37:40.189Z,18.49
2023-04-21T08:40:07.882Z,18.69
2023-04-21T08:42:37.077Z,18.59
2023-04-21T08:45:05.575Z,18.72
2023-04-21T08:47:38.154Z,18.89
2023-04-21T08:50:08.004Z,19.22
2023-04-21T08:52:54.938Z,19.72
2023-04-21T08:55:32.642Z,19.99
2023-04-21T08:58:18.742Z,20.01
2023-04-21T09:00:46.041Z,20.35
2023-04-21T09:03:23.370Z,20.35
2023-04-21T09:06:08.480Z,20.27
2023-04-21T09:08:42.764Z,20.58
2023-04-21T09:11:14.233Z,20.54
2023-04-21T09:14:04.656Z,20.53
2023-04-21T09:16:38.869Z,20.49
2023-04-21T09:19:19.190Z,20.50
2023-04-21T09:21:46.616Z,20.76
2023-04-21T09:24:13.586Z,20.99
2023-04-21T09:26:59.552Z,21.23
2023-04-21T09:29:26.917Z,20.95
2023-04-21T09:31:53.962Z,20.74
2023-04-21T09:34:25.269Z,21.53
2023-04-21T09:37:07.800Z,21.67
2023-04-21T09:39:52.764Z,21.52
2023-04-21T09:42:45.130Z,21.91
2023-04-21T09:47:53.151Z,21.54
2023-04-21T09:50:51.192Z,21.18
2023-04-21T09:53:33.985Z,21.15
2023-04-21T09:56:05.766Z,22.11
2023-04-21T09:58:54.170Z,22.00
2023-04-21T10:01:21.293Z,21.90
2023-04-21T10:03:49.655Z,21.79
2023-04-21T10:06:21.653Z,21.78
2023-04-21T10:08:55.013Z,21.37
2023-04-21T10:11:40.649Z,21.93
2023-04-21T10:14:10.177Z,22.00
2023-04-21T10:16:40.451Z,22.53
2023-04-21T10:19:28.459Z,23.12
2023-04-21T10:22:14.004Z,23.69
2023-04-21T10:24:43.181Z,23.90
2023-04-21T10:27:31.906Z,23.57
2023-04-21T10:30:21.037Z,22.69
2023-04-21T10:32:48.924Z,22.70
2023-04-21T10:35:23.829Z,22.20
2023-04-21T10:37:54.249Z,22.27
2023-04-21T10:40:42.501Z,23.56
2023-04-21T10:43:42.907Z,23.45
2023-04-21T10:46:35.796Z,24.07
2023-04-21T10:49:12.398Z,25.13
2023-04-21T10:52:17.881Z,26.02
2023-04-21T10:55:20.480Z,26.05
2023-04-21T10:57:48.084Z,25.74
2023-04-21T11:00:17.700Z,25.75
2023-04-21T11:02:45.417Z,25.37
2023-04-21T11:05:15.915Z,25.22
2023-04-21T11:07:42.848Z,25.61
2023-04-21T11:10:11.483Z,26.75
2023-04-21T11:12:40.345Z,27.01
2023-04-21T11:15:13.392Z,26.79
2023-04-21T11:17:46.483Z,26.54
2023-04-21T11:20:13.848Z,25.10
2023-04-21T11:22:40.942Z,24.83
2023-04-21T11:25:39.242Z,25.36
2023-04-21T11:28:06.509Z,25.82
2023-04-21T11:30:52.613Z,27.07
2023-04-21T11:33:38.317Z,26.91
2023-04-21T11:36:11.164Z,27.35
2023-04-21T11:38:41.364Z,25.73
2023-04-21T11:41:12.444Z,23.36
2023-04-21T11:43:40.064Z,24.21
2023-04-21T11:46:17.193Z,25.74
2023-04-21T11:48:45.090Z,26.86
2023-04-21T11:51:16.581Z,26.49
2023-04-21T11:53:43.929Z,26.55
2023-04-21T11:56:12.087Z,27.12
2023-04-21T11:58:39.869Z,26.66
2023-04-21T12:01:28.593Z,23.70
2023-04-21T12:03:59.121Z,21.91
2023-04-21T12:06:28.857Z,22.79
2023-04-21T12:09:02.787Z,24.85
2023-04-21T12:11:31.103Z,26.60
2023-04-21T12:13:58.790Z,27.59
2023-04-21T12:16:29.743Z,27.95
2023-04-21T12:19:10.468Z,27.36
2023-04-21T12:21:40.329Z,24.39
2023-04-21T12:24:07.791Z,22.46
2023-04-21T12:26:44.423Z,21.37
2023-04-21T12:29:12.333Z,21.88
2023-04-21T12:31:39.508Z,24.40
2023-04-21T12:34:07.983Z,25.63
2023-04-21T12:36:36.630Z,27.16
2023-04-21T12:39:03.905Z,28.33
2023-04-21T12:41:33.611Z,27.97
2023-04-21T12:44:06.549Z,26.31
2023-04-21T12:46:33.596Z,24.29
2023-04-21T12:49:00.774Z,22.95
2023-04-21T12:51:27.783Z,23.32
2023-04-21T12:53:54.963Z,24.59
2023-04-21T12:56:41.697Z,26.20
2023-04-21T12:59:12.744Z,27.53
2023-04-21T13:01:41.682Z,28.47
2023-04-21T13:04:09.493Z,28.59
2023-04-21T13:06:41.083Z,28.84
2023-04-21T13:09:08.473Z,28.84
2023-04-21T13:11:35.675Z,28.18
2023-04-21T13:14:07.483Z,28.37
2023-04-21T13:16:34.694Z,28.56
2023-04-21T13:19:02.836Z,28.97
2023-04-21T13:21:31.321Z,29.15
2023-04-21T13:23:58.723Z,29.46
2023-04-21T13:26:26.493Z,29.39
2023-04-21T13:28:53.588Z,30.24
2023-04-21T13:31:21.040Z,30.57
2023-04-21T13:33:48.330Z,30.21
2023-04-21T13:36:15.639Z,30.37
2023-04-21T13:38:48.252Z,30.69
2023-04-21T13:41:15.382Z,31.13
2023-04-21T13:44:21.456Z,30.05
2023-04-21T13:46:48.716Z,30.42
2023-04-21T13:49:16.319Z,30.79
2023-04-21T13:52:02.084Z,30.66
2023-04-21T13:54:48.164Z,30.28
2023-04-21T13:57:16.519Z,30.42
2023-04-21T13:59:43.576Z,31.09
2023-04-21T14:02:31.682Z,31.39
2023-04-21T14:05:18.579Z,30.58
2023-04-21T14:07:53.235Z,30.29
2023-04-21T14:10:39.010Z,30.70
2023-04-21T14:13:06.484Z,30.71
2023-04-21T14:15:33.544Z,29.16
2023-04-21T14:18:00.664Z,28.01
2023-04-21T14:20:29.559Z,27.60
2023-04-21T14:22:56.959Z,28.69
2023-04-21T14:25:24.060Z,29.13
2023-04-21T14:27:51.188Z,29.45
2023-04-21T14:30:18.254Z,29.23
2023-04-21T14:33:04.359Z,28.80
2023-04-21T14:35:31.498Z,27.79
2023-04-21T14:37:58.895Z,26.33
2023-04-21T14:40:31.761Z,23.97
2023-04-21T14:43:01.978Z,22.85
2023-04-21T14:45:30.167Z,22.21
2023-04-21T14:47:57.394Z,21.12
2023-04-21T14:50:25.158Z,22.17
2023-04-21T14:53:43.428Z,24.18
2023-04-21T14:56:11.062Z,25.15
2023-04-21T14:58:38.142Z,25.59
2023-04-21T15:01:07.539Z,26.13
2023-04-21T15:03:35.178Z,26.55
2023-04-21T15:06:02.336Z,26.99
2023-04-21T15:08:48.209Z,26.80
2023-04-21T15:11:33.592Z,26.68
2023-04-21T15:14:05.358Z,26.55
2023-04-21T15:16:32.890Z,26.34
2023-04-21T15:19:00.913Z,25.71
2023-04-21T15:21:28.930Z,24.22
2023-04-21T15:24:05.459Z,22.38
2023-04-21T15:26:32.661Z,21.24
2023-04-21T15:29:02.607Z,20.69
2023-04-21T15:31:30.340Z,19.95
2023-04-21T15:34:16.091Z,19.41
2023-04-21T15:36:43.077Z,19.04
2023-04-21T15:39:29.136Z,18.53
2023-04-21T15:41:57.513Z,18.18
2023-04-21T15:44:25.095Z,18.03
2023-04-21T15:46:52.130Z,17.70
2023-04-21T15:49:19.111Z,17.15
2023-04-21T15:51:46.562Z,17.07
2023-04-21T15:54:13.652Z,16.97
2023-04-21T15:56:41.607Z,16.73
2023-04-21T15:59:15.713Z,16.52
2023-04-21T16:01:43.048Z,16.34
2023-04-21T16:04:10.229Z,16.16
2023-04-21T16:06:56.597Z,16.14
2023-04-21T16:09:43.282Z,15.92
2023-04-21T16:12:10.649Z,15.77
2023-04-21T16:15:01.590Z,15.81
2023-04-21T16:17:34.403Z,15.65
2023-04-21T16:20:01.482Z,15.42
2023-04-21T16:22:31.421Z,15.53
2023-04-21T16:25:03.059Z,15.56
2023-04-21T16:27:30.789Z,15.57
2023-04-21T16:29:58.006Z,15.35
2023-04-21T16:32:25.939Z,15.35
2023-04-21T16:34:53.137Z,15.08
2023-04-21T16:37:29.304Z,15.02
2023-04-21T16:40:18.240Z,15.03
2023-04-21T16:42:49.168Z,14.95
2023-04-21T16:45:16.996Z,15.02
2023-04-21T16:47:44.496Z,14.76
2023-04-21T16:50:45.791Z,14.62
2023-04-21T16:53:12.872Z,14.57
2023-04-21T16:55:40.672Z,14.41
2023-04-21T16:58:07.787Z,14.26
2023-04-21T17:00:36.278Z,14.29
2023-04-21T17:03:08.832Z,14.18
2023-04-21T17:05:54.521Z,14.15
2023-04-21T17:08:22.088Z,14.01
2023-04-21T17:10:49.294Z,13.92
2023-04-21T17:13:16.780Z,13.75
2023-04-21T17:15:44.025Z,13.61
2023-04-21T17:18:16.157Z,13.53
2023-04-21T17:20:43.666Z,13.46
2023-04-21T17:23:29.114Z,13.48
2023-04-21T17:25:56.728Z,13.37
2023-04-21T17:28:24.195Z,13.28
2023-04-21T17:31:00.443Z,13.10
2023-04-21T17:33:31.077Z,13.08
2023-04-21T17:36:03.430Z,13.10
2023-04-21T17:38:36.948Z,13.08
2023-04-21T17:41:07.112Z,12.99
2023-04-21T17:43:34.298Z,12.84
2023-04-21T17:46:01.437Z,12.77
2023-04-21T17:48:37.970Z,12.61
2023-04-21T17:51:30.122Z,12.63
2023-04-21T17:53:59.229Z,12.61
2023-04-21T17:56:27.585Z,12.53
2023-04-21T17:58:54.937Z,12.54
2023-04-21T18:01:22.038Z,12.42
2023-04-21T18:03:58.480Z,12.49
2023-04-21T18:06:28.525Z,12.38
2023-04-21T18:09:14.331Z,12.40
2023-04-21T18:11:42.014Z,12.33
2023-04-21T18:14:28.071Z,12.27
2023-04-21T18:16:55.692Z,12.22
2023-04-21T18:19:42.058Z,12.17
2023-04-21T18:22:12.514Z,12.17
2023-04-21T18:24:40.877Z,12.11
2023-04-21T18:27:08.175Z,12.10
2023-04-21T18:29:35.412Z,12.14
2023-04-21T18:32:03.003Z,12.18
2023-04-21T18:34:30.473Z,12.25
2023-04-21T18:37:00.137Z,12.09
2023-04-21T18:39:27.401Z,12.07
2023-04-21T18:41:54.881Z,12.14
2023-04-21T18:44:22.002Z,12.13
2023-04-21T18:46:49.313Z,11.96
2023-04-21T18:49:44.949Z,11.92
2023-04-21T18:52:13.845Z,11.91
2023-04-21T18:54:41.372Z,11.76
2023-04-21T18:57:08.485Z,11.87
2023-04-21T18:59:39.100Z,11.83
2023-04-21T19:02:25.138Z,11.77
2023-04-21T19:04:52.696Z,11.58
2023-04-21T19:07:31.415Z,11.52
2023-04-21T19:09:58.607Z,11.41
2023-04-21T19:12:27.039Z,11.30
2023-04-21T19:14:54.662Z,11.32
2023-04-21T19:17:22.074Z,11.27
2023-04-21T19:19:57.187Z,11.21
2023-04-21T19:22:24.586Z,11.09
2023-04-21T19:24:56.088Z,10.98
2023-04-21T19:27:24.114Z,10.71
2023-04-21T19:29:53.862Z,10.70
2023-04-21T19:32:21.401Z,10.65
2023-04-21T19:34:51.673Z,10.55
2023-04-21T19:37:19.085Z,10.54
2023-04-21T19:39:46.194Z,10.47
2023-04-21T19:42:13.516Z,10.34
2023-04-21T19:44:44.258Z,10.28
2023-04-21T19:47:11.613Z,10.43
2023-04-21T19:49:41.653Z,10.47
2023-04-21T19:52:08.854Z,10.35
2023-04-21T19:54:38.564Z,10.32
2023-04-21T19:57:08.639Z,10.32
2023-04-21T19:59:36.130Z,10.19
2023-04-21T20:02:07.286Z,10.13
2023-04-21T20:04:35.204Z,10.08
2023-04-21T20:07:02.626Z,10.08
2023-04-21T20:09:30.038Z,10.07
2023-04-21T20:11:57.187Z,10.07
2023-04-21T20:14:24.322Z,10.01
2023-04-21T20:16:51.540Z,9.94
2023-04-21T20:19:18.695Z,9.97
2023-04-21T20:21:50.012Z,10.03
2023-04-21T20:24:18.957Z,9.98
2023-04-21T20:26:46.127Z,9.87
2023-04-21T20:29:14.379Z,9.94
2023-04-21T20:31:41.989Z,9.90
2023-04-21T20:34:42.039Z,10.02
2023-04-21T20:37:37.282Z,9.97
2023-04-21T20:40:08.416Z,9.75
2023-04-21T20:42:36.490Z,9.79
2023-04-21T20:45:06.300Z,9.81
2023-04-21T20:47:35.697Z,9.76
2023-04-21T20:50:03.779Z,9.84
2023-04-21T20:52:32.946Z,9.70
2023-04-21T20:55:00.445Z,9.78
2023-04-21T20:57:27.572Z,9.77
2023-04-21T20:59:54.776Z,9.77
2023-04-21T21:02:21.994Z,9.64
2023-04-21T21:04:49.682Z,9.57
2023-04-21T21:07:19.049Z,9.50
2023-04-21T21:09:46.110Z,9.59
2023-04-21T21:12:13.221Z,9.54
2023-04-21T21:14:40.325Z,9.50
2023-04-21T21:17:07.600Z,9.51
2023-04-21T21:19:34.907Z,9.57
2023-04-21T21:22:01.924Z,9.53
2023-04-21T21:24:29.151Z,9.46
2023-04-21T21:26:57.423Z,9.46
2023-04-21T21:29:24.939Z,9.41
2023-04-21T21:31:52.016Z,9.39
2023-04-21T21:34:19.042Z,9.34
2023-04-21T21:36:46.076Z,9.27
2023-04-21T21:39:13.097Z,9.23
2023-04-21T21:41:43.156Z,9.15
2023-04-21T21:44:13.103Z,9.16
2023-04-21T21:46:40.738Z,9.15
2023-04-21T21:49:10.481Z,9.09
2023-04-21T21:51:37.470Z,9.05
2023-04-21T21:54:05.640Z,9.04
2023-04-21T21:56:33.662Z,8.94
2023-04-21T21:59:00.756Z,8.90
2023-04-21T22:01:27.787Z,8.86
2023-04-21T22:03:55.036Z,8.82
2023-04-21T22:06:26.908Z,8.81
2023-04-21T22:08:54.139Z,8.85
2023-04-21T22:11:24.182Z,8.82
2023-04-21T22:13:51.529Z,8.79
2023-04-21T22:16:18.761Z,8.78
2023-04-21T22:18:48.955Z,8.67
2023-04-21T22:21:16.710Z,8.67
2023-04-21T22:23:43.837Z,8.64
2023-04-21T22:26:16.084Z,8.59
2023-04-21T22:28:46.699Z,8.59
2023-04-21T22:31:15.599Z,8.58
2023-04-21T22:33:42.645Z,8.59
2023-04-21T22:36:10.045Z,8.59
2023-04-21T22:38:43.865Z,8.50
2023-04-21T22:41:10.958Z,8.54
2023-04-21T22:43:38.229Z,8.49
2023-04-21T22:46:06.383Z,8.40
2023-04-21T22:48:33.959Z,8.39
2023-04-21T22:51:01.717Z,8.39
2023-04-21T22:53:28.842Z,8.35
2023-04-21T22:55:55.851Z,8.29
2023-04-21T22:58:22.874Z,8.29
2023-04-21T23:00:50.425Z,8.27
2023-04-21T23:03:17.642Z,8.22
2023-04-21T23:05:47.444Z,8.15
2023-04-21T23:08:17.188Z,8.04
2023-04-21T23:10:47.561Z,7.98
2023-04-21T23:13:14.597Z,7.98
2023-04-21T23:15:42.564Z,7.94
2023-04-21T23:18:09.590Z,7.89
2023-04-21T23:20:37.214Z,7.80
2023-04-21T23:23:09.200Z,7.75
2023-04-21T23:25:36.312Z,7.79
2023-04-21T23:28:03.238Z,7.73
2023-04-21T23:30:30.588Z,7.68
2023-04-21T23:32:57.827Z,7.65
2023-04-21T23:35:27.702Z,7.59
2023-04-21T23:37:57.262Z,7.54
2023-04-21T23:40:24.367Z,7.56
2023-04-21T23:42:51.418Z,7.58
2023-04-21T23:45:18.535Z,7.57
2023-04-21T23:47:45.899Z,7.53
2023-04-21T23:50:22.216Z,7.53
2023-04-21T23:52:49.537Z,7.55
2023-04-21T23:55:18.099Z,7.45
2023-04-21T23:57:46.865Z,7.45
